British Ensign — MMER9 — position and weather

sailwx.info

Track history (hours):
 
Tides and Currents Weather Stations Pressure Air Temp Water Temp Dewpoint Dewpoint Depression Visibility Wind Speed Wind Dir Waves Ship Positions

British Ensign

Last reported at 2015-Apr-30 04:33 UTC. Time now 2015-May-05 15:18 UTC.
Position N 40°26' W 070°05'.

Length 184.2 m; beam 27.4 m; draft 11.3 m.

Type: Ship. MMSI: 235010980.

Date/timePositionNaut miles runAvg speedWind from/ knotsBaromVisibWave heightAir tempDewpointWater temp
2015-Apr-30 04:33N 40°26' W 070°05'1414.3
2015-Apr-30 03:33N 40°25' W 070°24'1414.3
2015-Apr-30 02:33N 40°25' W 070°42'1514.4
2015-Apr-30 01:30N 40°24' W 071°02'1314.0
2015-Apr-30 00:33N 40°24' W 071°20'1413.9
2015-Apr-29 23:34N 40°24' W 071°38'1413.8
2015-Apr-29 22:33N 40°23' W 071°56'1413.7
2015-Apr-29 21:33N 40°22' W 072°14'1414.2
2015-Apr-29 20:33N 40°22' W 072°32'1414.2
2015-Apr-29 19:33N 40°22' W 072°51'2913.9
2015-Apr-29 17:30N 40°24' W 073°29'8 8.0
2015-Apr-29 16:33N 40°29' W 073°36'2 1.9
2015-Apr-29 15:14N 40°30' W 073°39'0 0.0
2015-Apr-29 08:05N 40°30' W 073°39'0 0.0
2015-Apr-29 07:23N 40°30' W 073°39'0 0.1
2015-Apr-29 06:23N 40°30' W 073°39'0 0.0
2015-Apr-29 05:33N 40°30' W 073°39'0 0.0
2015-Apr-29 04:33N 40°30' W 073°39'0 0.1
2015-Apr-29 03:33N 40°30' W 073°39'0 0.0
2015-Apr-29 02:34N 40°30' W 073°39'0 0.0
2015-Apr-29 01:33N 40°30' W 073°39'0 0.1
2015-Apr-29 00:33N 40°30' W 073°39'6 5.9
2015-Apr-28 23:33N 40°28' W 073°46'9 8.6
2015-Apr-28 22:34N 40°30' W 073°57'10 9.9
2015-Apr-28 21:33N 40°38' W 074°04'0 0.0
2015-Apr-28 20:33N 40°38' W 074°04'0 0.0
2015-Apr-28 19:33N 40°38' W 074°04'0 0.0
2015-Apr-28 18:33N 40°38' W 074°04'0 0.1
2015-Apr-28 17:33N 40°38' W 074°04'0 0.1
2015-Apr-28 16:33N 40°38' W 074°04'0 0.0
2015-Apr-28 15:33N 40°38' W 074°04'0 0.0
2015-Apr-28 14:33N 40°38' W 074°04'2 1.6
2015-Apr-28 13:33N 40°39' W 074°06'6 5.5
2015-Apr-28 12:33N 40°36' W 074°12'0 0.0
2015-Apr-28 11:31N 40°36' W 074°12'0 0.0
2015-Apr-28 10:31N 40°36' W 074°12'0 0.0
2015-Apr-28 09:31N 40°36' W 074°12'0 0.0
2015-Apr-27 21:32N 40°36' W 074°12'0 0.0
2015-Apr-27 20:32N 40°36' W 074°12'3 3.5
2015-Apr-27 19:33N 40°33' W 074°14'0 0.0
2015-Apr-27 18:12N 40°33' W 074°14'0 0.0
2015-Apr-27 17:30N 40°33' W 074°14'0 0.0
2015-Apr-27 16:30N 40°33' W 074°14'0 0.0
2015-Apr-27 15:33N 40°33' W 074°14'0 0.0
2015-Apr-27 14:33N 40°33' W 074°14'0 0.0
2015-Apr-27 13:30N 40°33' W 074°14'0 0.0
2015-Apr-27 12:30N 40°33' W 074°14'0 0.0
2015-Apr-27 07:27N 40°33' W 074°14'0 0.0
2015-Apr-27 04:30N 40°33' W 074°14'0 0.0
2015-Apr-27 03:30N 40°33' W 074°14'0 0.0
2015-Apr-27 02:30N 40°33' W 074°14'0 0.0
2015-Apr-27 01:18N 40°33' W 074°14'0 0.0
2015-Apr-27 00:27N 40°33' W 074°14'0 0.0
2015-Apr-26 23:30N 40°33' W 074°14'0 0.0
2015-Apr-26 22:27N 40°33' W 074°14'0 0.0
2015-Apr-26 20:18N 40°33' W 074°14'0 0.0
2015-Apr-26 19:33N 40°33' W 074°14'0 0.0
2015-Apr-26 18:30N 40°33' W 074°14'0 0.0
2015-Apr-25 18:19N 40°33' W 074°14'3 3.3
2015-Apr-25 17:32N 40°31' W 074°15'7 7.2
2015-Apr-25 16:34N 40°29' W 074°06'10 9.4
2015-Apr-25 15:32N 40°27' W 073°54'7 6.7
2015-Apr-25 14:32N 40°26' W 073°45'2 2.5
2015-Apr-25 13:34N 40°24' W 073°43'  
2015-Apr-22 14:00N 35°54' W 056°18'   290 / 191009.9 5.4 1.021.017.8
Track history (hours):
 
Tides and Currents Weather Stations Pressure Air Temp Water Temp Dewpoint Dewpoint Depression Visibility Wind Speed Wind Dir Waves Ship Positions

British Ensign

Last reported at 2015-Apr-30 04:33 UTC. Time now 2015-May-05 15:18 UTC.
Position N 40°26' W 070°05'.

Length 184.2 m; beam 27.4 m; draft 11.3 m.

Type: Ship. MMSI: 235010980.

Date/timePositionNaut miles runAvg speedWind from/ knotsBaromVisibWave heightAir tempDewpointWater temp
2015-Apr-30 04:33N 40°26' W 070°05'1414.3
2015-Apr-30 03:33N 40°25' W 070°24'1414.3
2015-Apr-30 02:33N 40°25' W 070°42'1514.4
2015-Apr-30 01:30N 40°24' W 071°02'1314.0
2015-Apr-30 00:33N 40°24' W 071°20'1413.9
2015-Apr-29 23:34N 40°24' W 071°38'1413.8
2015-Apr-29 22:33N 40°23' W 071°56'1413.7
2015-Apr-29 21:33N 40°22' W 072°14'1414.2
2015-Apr-29 20:33N 40°22' W 072°32'1414.2
2015-Apr-29 19:33N 40°22' W 072°51'2913.9
2015-Apr-29 17:30N 40°24' W 073°29'8 8.0
2015-Apr-29 16:33N 40°29' W 073°36'2 1.9
2015-Apr-29 15:14N 40°30' W 073°39'0 0.0
2015-Apr-29 08:05N 40°30' W 073°39'0 0.0
2015-Apr-29 07:23N 40°30' W 073°39'0 0.1
2015-Apr-29 06:23N 40°30' W 073°39'0 0.0
2015-Apr-29 05:33N 40°30' W 073°39'0 0.0
2015-Apr-29 04:33N 40°30' W 073°39'0 0.1
2015-Apr-29 03:33N 40°30' W 073°39'0 0.0
2015-Apr-29 02:34N 40°30' W 073°39'0 0.0
2015-Apr-29 01:33N 40°30' W 073°39'0 0.1
2015-Apr-29 00:33N 40°30' W 073°39'6 5.9
2015-Apr-28 23:33N 40°28' W 073°46'9 8.6
2015-Apr-28 22:34N 40°30' W 073°57'10 9.9
2015-Apr-28 21:33N 40°38' W 074°04'0 0.0
2015-Apr-28 20:33N 40°38' W 074°04'0 0.0
2015-Apr-28 19:33N 40°38' W 074°04'0 0.0
2015-Apr-28 18:33N 40°38' W 074°04'0 0.1
2015-Apr-28 17:33N 40°38' W 074°04'0 0.1
2015-Apr-28 16:33N 40°38' W 074°04'0 0.0
2015-Apr-28 15:33N 40°38' W 074°04'0 0.0
2015-Apr-28 14:33N 40°38' W 074°04'2 1.6
2015-Apr-28 13:33N 40°39' W 074°06'6 5.5
2015-Apr-28 12:33N 40°36' W 074°12'0 0.0
2015-Apr-28 11:31N 40°36' W 074°12'0 0.0
2015-Apr-28 10:31N 40°36' W 074°12'0 0.0
2015-Apr-28 09:31N 40°36' W 074°12'0 0.0
2015-Apr-27 21:32N 40°36' W 074°12'0 0.0
2015-Apr-27 20:32N 40°36' W 074°12'3 3.5
2015-Apr-27 19:33N 40°33' W 074°14'0 0.0
2015-Apr-27 18:12N 40°33' W 074°14'0 0.0
2015-Apr-27 17:30N 40°33' W 074°14'0 0.0
2015-Apr-27 16:30N 40°33' W 074°14'0 0.0
2015-Apr-27 15:33N 40°33' W 074°14'0 0.0
2015-Apr-27 14:33N 40°33' W 074°14'0 0.0
2015-Apr-27 13:30N 40°33' W 074°14'0 0.0
2015-Apr-27 12:30N 40°33' W 074°14'0 0.0
2015-Apr-27 07:27N 40°33' W 074°14'0 0.0
2015-Apr-27 04:30N 40°33' W 074°14'0 0.0
2015-Apr-27 03:30N 40°33' W 074°14'0 0.0
2015-Apr-27 02:30N 40°33' W 074°14'0 0.0
2015-Apr-27 01:18N 40°33' W 074°14'0 0.0
2015-Apr-27 00:27N 40°33' W 074°14'0 0.0
2015-Apr-26 23:30N 40°33' W 074°14'0 0.0
2015-Apr-26 22:27N 40°33' W 074°14'0 0.0
2015-Apr-26 20:18N 40°33' W 074°14'0 0.0
2015-Apr-26 19:33N 40°33' W 074°14'0 0.0
2015-Apr-26 18:30N 40°33' W 074°14'0 0.0
2015-Apr-25 18:19N 40°33' W 074°14'3 3.3
2015-Apr-25 17:32N 40°31' W 074°15'7 7.2
2015-Apr-25 16:34N 40°29' W 074°06'10 9.4
2015-Apr-25 15:32N 40°27' W 073°54'7 6.7
2015-Apr-25 14:32N 40°26' W 073°45'2 2.5
2015-Apr-25 13:34N 40°24' W 073°43'  
2015-Apr-22 14:00N 35°54' W 056°18'   290 / 191009.9 5.4 1.021.017.8

Dump ship's entire track history